createdAt,value
2019-01-18T00:00:14.810Z,998.19
2019-01-18T00:01:14.822Z,998.28
2019-01-18T00:02:14.787Z,998.25
2019-01-18T00:03:14.779Z,998.28
2019-01-18T00:04:14.766Z,998.25
2019-01-18T00:05:14.792Z,998.24
2019-01-18T00:06:14.745Z,998.25
2019-01-18T00:07:14.735Z,998.29
2019-01-18T00:08:14.727Z,998.24
2019-01-18T00:09:14.712Z,998.16
2019-01-18T00:10:14.719Z,998.23
2019-01-18T00:11:14.719Z,998.18
2019-01-18T00:12:14.679Z,998.23
2019-01-18T00:13:14.669Z,998.21
2019-01-18T00:14:14.659Z,998.28
2019-01-18T00:15:14.672Z,998.41
2019-01-18T00:16:14.637Z,998.26
2019-01-18T00:17:14.626Z,998.34
2019-01-18T00:18:14.618Z,998.32
2019-01-18T00:19:14.606Z,998.16
2019-01-18T00:20:14.620Z,998.41
2019-01-18T00:21:14.584Z,998.44
2019-01-18T00:22:14.578Z,998.45
2019-01-18T00:23:14.566Z,998.42
2019-01-18T00:24:14.551Z,998.47
2019-01-18T00:25:14.569Z,998.50
2019-01-18T00:26:14.533Z,998.50
2019-01-18T00:27:14.520Z,998.48
2019-01-18T00:28:14.513Z,998.48
2019-01-18T00:29:14.502Z,998.51
2019-01-18T00:30:14.520Z,998.41
2019-01-18T00:31:15.125Z,998.52
2019-01-18T00:32:14.467Z,998.50
2019-01-18T00:33:14.455Z,998.53
2019-01-18T00:34:14.445Z,998.53
2019-01-18T00:35:14.467Z,998.58
2019-01-18T00:36:14.426Z,998.60
2019-01-18T00:37:14.420Z,998.58
2019-01-18T00:38:14.411Z,998.60
2019-01-18T00:39:14.391Z,998.54
2019-01-18T00:40:14.410Z,998.62
2019-01-18T00:41:14.374Z,998.67
2019-01-18T00:42:14.371Z,998.69
2019-01-18T00:43:14.364Z,998.66
2019-01-18T00:44:14.337Z,998.65
2019-01-18T00:45:14.351Z,998.66
2019-01-18T00:46:14.316Z,998.66
2019-01-18T00:47:14.305Z,998.68
2019-01-18T00:48:14.300Z,998.74
2019-01-18T00:49:14.284Z,998.67
2019-01-18T00:50:14.323Z,998.76
2019-01-18T00:51:14.264Z,998.77
2019-01-18T00:52:14.253Z,998.75
2019-01-18T00:53:14.240Z,998.72
2019-01-18T00:54:14.233Z,998.76
2019-01-18T00:55:14.264Z,998.85
2019-01-18T00:56:14.214Z,998.87
2019-01-18T00:57:14.199Z,998.90
2019-01-18T00:58:14.186Z,998.86
2019-01-18T00:59:14.175Z,998.92
2019-01-18T01:00:14.166Z,998.92
2019-01-18T01:01:14.180Z,998.90
2019-01-18T01:02:14.145Z,998.99
2019-01-18T01:03:14.135Z,998.89
2019-01-18T01:04:14.122Z,998.97
2019-01-18T01:05:14.153Z,998.94
2019-01-18T01:06:14.103Z,998.98
2019-01-18T01:07:14.091Z,999.03
2019-01-18T01:08:14.095Z,999.02
2019-01-18T01:09:14.066Z,999.08
2019-01-18T01:10:14.058Z,999.01
2019-01-18T01:11:14.091Z,998.98
2019-01-18T01:12:14.057Z,999.12
2019-01-18T01:13:14.022Z,999.16
2019-01-18T01:14:14.029Z,999.13
2019-01-18T01:15:14.001Z,999.16
2019-01-18T01:16:20.353Z,999.16
2019-01-18T01:17:13.980Z,999.23
2019-01-18T01:18:13.970Z,999.29
2019-01-18T01:19:13.974Z,999.34
2019-01-18T01:20:13.951Z,999.33
2019-01-18T01:21:13.939Z,999.36
2019-01-18T01:22:13.964Z,999.46
2019-01-18T01:23:13.916Z,999.42
2019-01-18T01:24:13.905Z,999.51
2019-01-18T01:25:13.897Z,999.46
2019-01-18T01:26:13.903Z,999.54
2019-01-18T01:27:13.872Z,999.55
2019-01-18T01:28:13.910Z,999.61
2019-01-18T01:29:13.850Z,999.74
2019-01-18T01:30:13.840Z,999.75
2019-01-18T01:31:13.829Z,999.71
2019-01-18T01:32:13.817Z,999.81
2019-01-18T01:33:13.806Z,999.88
2019-01-18T01:34:13.833Z,999.91
2019-01-18T01:35:13.783Z,1000.03
2019-01-18T01:36:13.781Z,1000.07
2019-01-18T01:37:13.762Z,1000.17
2019-01-18T01:38:13.751Z,1000.13
2019-01-18T01:39:13.754Z,1000.24
2019-01-18T01:40:13.768Z,1000.22
2019-01-18T01:41:13.721Z,1000.27
2019-01-18T01:42:13.707Z,1000.33
2019-01-18T01:43:13.698Z,1000.37
2019-01-18T01:44:13.688Z,1000.35
2019-01-18T01:45:13.679Z,1000.51
2019-01-18T01:46:13.705Z,1000.54
2019-01-18T01:47:13.659Z,1000.54
2019-01-18T01:48:13.646Z,1000.60
2019-01-18T01:49:13.642Z,1000.58
2019-01-18T01:50:13.624Z,1000.68
2019-01-18T01:51:13.614Z,1000.75
2019-01-18T01:52:13.638Z,1000.81
2019-01-18T01:53:13.590Z,1000.84
2019-01-18T01:54:13.582Z,1000.84
2019-01-18T01:55:13.569Z,1000.85
2019-01-18T01:56:13.557Z,1000.92
2019-01-18T01:57:13.549Z,1000.94
2019-01-18T01:58:13.575Z,1000.97
2019-01-18T01:59:13.526Z,1000.97
2019-01-18T02:00:13.517Z,1000.98
2019-01-18T02:01:13.508Z,1000.98
2019-01-18T02:02:13.494Z,1001.04
2019-01-18T02:03:13.485Z,1001.05
2019-01-18T02:04:13.514Z,1001.09
2019-01-18T02:05:13.464Z,1001.15
2019-01-18T02:06:13.454Z,1001.16
2019-01-18T02:07:13.442Z,1001.22
2019-01-18T02:08:13.434Z,1001.22
2019-01-18T02:09:13.424Z,1001.23
2019-01-18T02:10:13.449Z,1001.28
2019-01-18T02:11:13.401Z,1001.31
2019-01-18T02:12:13.395Z,1001.31
2019-01-18T02:13:13.380Z,1001.34
2019-01-18T02:14:13.372Z,1001.41
2019-01-18T02:15:13.361Z,1001.39
2019-01-18T02:16:13.374Z,1001.39
2019-01-18T02:17:13.341Z,1001.40
2019-01-18T02:18:13.330Z,1001.42
2019-01-18T02:19:13.319Z,1001.43
2019-01-18T02:20:13.309Z,1001.50
2019-01-18T02:21:13.339Z,1001.54
2019-01-18T02:22:13.286Z,1001.56
2019-01-18T02:23:13.278Z,1001.53
2019-01-18T02:24:13.271Z,1001.51
2019-01-18T02:25:13.258Z,1001.54
2019-01-18T02:26:13.245Z,1001.59
2019-01-18T02:27:13.261Z,1001.59
2019-01-18T02:28:13.225Z,1001.65
2019-01-18T02:29:13.217Z,1001.66
2019-01-18T02:30:13.206Z,1001.67
2019-01-18T02:31:13.199Z,1001.74
2019-01-18T02:32:13.241Z,1001.73
2019-01-18T02:33:13.180Z,1001.76
2019-01-18T02:34:13.164Z,1001.80
2019-01-18T02:35:13.156Z,1001.81
2019-01-18T02:36:13.145Z,1001.77
2019-01-18T02:37:13.131Z,1001.83
2019-01-18T02:38:13.146Z,1001.90
2019-01-18T02:39:13.113Z,1001.90
2019-01-18T02:40:13.104Z,1001.93
2019-01-18T02:41:13.091Z,1001.99
2019-01-18T02:42:13.082Z,1001.97
2019-01-18T02:43:13.108Z,1001.93
2019-01-18T02:44:13.060Z,1001.97
2019-01-18T02:45:13.077Z,1001.97
2019-01-18T02:46:13.039Z,1002.01
2019-01-18T02:47:13.029Z,1001.99
2019-01-18T02:48:13.018Z,1002.06
2019-01-18T02:49:13.011Z,1002.10
2019-01-18T02:50:13.020Z,1002.15
2019-01-18T02:51:12.988Z,1002.10
2019-01-18T02:52:12.976Z,1002.11
2019-01-18T02:53:12.966Z,1002.19
2019-01-18T02:54:12.955Z,1002.17
2019-01-18T02:55:12.975Z,1002.19
2019-01-18T02:56:12.932Z,1002.25
2019-01-18T02:57:12.949Z,1002.23
2019-01-18T02:58:12.919Z,1002.29
2019-01-18T02:59:12.902Z,1002.30
2019-01-18T03:00:12.917Z,1002.41
2019-01-18T03:01:12.879Z,1002.37
2019-01-18T03:02:12.869Z,1002.38
2019-01-18T03:03:12.871Z,1002.45
2019-01-18T03:04:12.847Z,1002.51
2019-01-18T03:05:12.864Z,1002.49
2019-01-18T03:06:12.827Z,1002.54
2019-01-18T03:07:12.816Z,1002.59
2019-01-18T03:08:12.817Z,1002.58
2019-01-18T03:09:12.801Z,1002.63
2019-01-18T03:10:12.811Z,1002.70
2019-01-18T03:11:12.776Z,1002.71
2019-01-18T03:12:12.768Z,1002.74
2019-01-18T03:13:12.750Z,1002.79
2019-01-18T03:14:12.741Z,1002.75
2019-01-18T03:15:12.758Z,1002.79
2019-01-18T03:16:12.722Z,1002.84
2019-01-18T03:17:12.713Z,1002.83
2019-01-18T03:18:12.699Z,1002.89
2019-01-18T03:19:12.688Z,1002.92
2019-01-18T03:20:12.703Z,1002.92
2019-01-18T03:21:12.668Z,1003.00
2019-01-18T03:22:12.659Z,1002.95
2019-01-18T03:23:12.648Z,1002.99
2019-01-18T03:24:12.636Z,1003.04
2019-01-18T03:25:12.669Z,1003.06
2019-01-18T03:26:12.625Z,1003.08
2019-01-18T03:27:12.604Z,1003.10
2019-01-18T03:28:12.593Z,1003.11
2019-01-18T03:29:12.587Z,1003.15
2019-01-18T03:30:18.769Z,1003.18
2019-01-18T03:31:13.563Z,1003.26
2019-01-18T03:32:12.551Z,1003.29
2019-01-18T03:33:12.541Z,1003.24
2019-01-18T03:34:12.534Z,1003.27
2019-01-18T03:35:12.543Z,1003.31
2019-01-18T03:36:12.509Z,1003.37
2019-01-18T03:37:12.502Z,1003.39
2019-01-18T03:38:12.488Z,1003.40
2019-01-18T03:39:12.477Z,1003.47
2019-01-18T03:40:12.492Z,1003.49
2019-01-18T03:41:12.455Z,1003.48
2019-01-18T03:42:12.445Z,1003.51
2019-01-18T03:43:12.434Z,1003.49
2019-01-18T03:44:12.423Z,1003.50
2019-01-18T03:45:12.440Z,1003.54
2019-01-18T03:46:12.404Z,1003.57
2019-01-18T03:47:12.391Z,1003.56
2019-01-18T03:48:12.379Z,1003.60
2019-01-18T03:49:12.369Z,1003.62
2019-01-18T03:50:12.385Z,1003.62
2019-01-18T03:51:12.349Z,1003.61
2019-01-18T03:52:12.341Z,1003.65
2019-01-18T03:53:12.326Z,1003.65
2019-01-18T03:54:12.320Z,1003.68
2019-01-18T03:55:12.332Z,1003.67
2019-01-18T03:56:12.295Z,1003.70
2019-01-18T03:57:12.286Z,1003.74
2019-01-18T03:58:12.276Z,1003.71
2019-01-18T03:59:12.264Z,1003.73
2019-01-18T04:00:12.277Z,1003.76
2019-01-18T04:01:12.244Z,1003.76
2019-01-18T04:02:12.232Z,1003.81
2019-01-18T04:03:12.221Z,1003.85
2019-01-18T04:04:12.209Z,1003.84
2019-01-18T04:05:12.228Z,1003.82
2019-01-18T04:06:12.189Z,1003.86
2019-01-18T04:07:12.180Z,1003.87
2019-01-18T04:08:12.168Z,1003.94
2019-01-18T04:09:12.154Z,1003.93
2019-01-18T04:10:12.180Z,1003.99
2019-01-18T04:11:12.138Z,1003.99
2019-01-18T04:12:12.126Z,1004.04
2019-01-18T04:13:12.114Z,1004.07
2019-01-18T04:14:12.102Z,1004.08
2019-01-18T04:15:12.128Z,1004.11
2019-01-18T04:16:12.083Z,1004.13
2019-01-18T04:17:12.076Z,1004.12
2019-01-18T04:18:12.065Z,1004.14
2019-01-18T04:19:12.048Z,1004.20
2019-01-18T04:20:12.038Z,1004.18
2019-01-18T04:21:12.056Z,1004.21
2019-01-18T04:22:12.016Z,1004.21
2019-01-18T04:23:12.007Z,1004.26
2019-01-18T04:24:11.998Z,1004.29
2019-01-18T04:25:12.010Z,1004.32
2019-01-18T04:26:11.972Z,1004.33
2019-01-18T04:27:11.977Z,1004.33
2019-01-18T04:28:11.954Z,1004.38
2019-01-18T04:29:11.942Z,1004.42
2019-01-18T04:30:11.954Z,1004.39
2019-01-18T04:31:11.921Z,1004.42
2019-01-18T04:32:11.914Z,1004.42
2019-01-18T04:33:11.905Z,1004.45
2019-01-18T04:34:11.889Z,1004.48
2019-01-18T04:35:11.904Z,1004.52
2019-01-18T04:36:11.868Z,1004.47
2019-01-18T04:37:11.857Z,1004.53
2019-01-18T04:38:11.850Z,1004.51
2019-01-18T04:39:11.837Z,1004.59
2019-01-18T04:40:11.855Z,1004.56
2019-01-18T04:41:11.815Z,1004.64
2019-01-18T04:42:11.803Z,1004.61
2019-01-18T04:43:11.793Z,1004.60
2019-01-18T04:44:11.781Z,1004.65
2019-01-18T04:45:11.796Z,1004.66
2019-01-18T04:46:11.762Z,1004.67
2019-01-18T04:47:11.750Z,1004.66
2019-01-18T04:48:11.738Z,1004.68
2019-01-18T04:49:11.728Z,1004.67
2019-01-18T04:50:11.745Z,1004.74
2019-01-18T04:51:11.710Z,1004.74
2019-01-18T04:52:11.698Z,1004.70
2019-01-18T04:53:11.722Z,1004.72
2019-01-18T04:54:11.676Z,1004.69
2019-01-18T04:55:11.703Z,1004.72
2019-01-18T04:56:11.660Z,1004.67
2019-01-18T04:57:11.658Z,1004.74
2019-01-18T04:58:11.634Z,1004.68
2019-01-18T04:59:11.622Z,1004.74
2019-01-18T05:00:11.636Z,1004.71
2019-01-18T05:01:11.605Z,1004.72
2019-01-18T05:02:11.591Z,1004.78
2019-01-18T05:03:11.579Z,1004.78
2019-01-18T05:04:11.568Z,1004.83
2019-01-18T05:05:11.584Z,1004.87
2019-01-18T05:06:11.546Z,1004.99
2019-01-18T05:07:11.543Z,1004.99
2019-01-18T05:08:11.529Z,1005.05
2019-01-18T05:09:11.517Z,1005.04
2019-01-18T05:10:11.530Z,1005.09
2019-01-18T05:11:11.500Z,1005.09
2019-01-18T05:12:11.518Z,1005.17
2019-01-18T05:13:11.476Z,1005.14
2019-01-18T05:14:11.462Z,1005.21
2019-01-18T05:15:11.476Z,1005.21
2019-01-18T05:16:11.443Z,1005.18
2019-01-18T05:17:11.429Z,1005.19
2019-01-18T05:18:11.421Z,1005.23
2019-01-18T05:19:11.408Z,1005.29
2019-01-18T05:20:11.425Z,1005.35
2019-01-18T05:21:11.386Z,1005.37
2019-01-18T05:22:11.374Z,1005.35
2019-01-18T05:23:11.366Z,1005.36
2019-01-18T05:24:11.356Z,1005.41
2019-01-18T05:25:11.380Z,1005.45
2019-01-18T05:26:11.334Z,1005.52
2019-01-18T05:27:11.336Z,1005.57
2019-01-18T05:28:11.312Z,1005.56
2019-01-18T05:29:11.302Z,1005.62
2019-01-18T05:30:11.290Z,1005.66
2019-01-18T05:31:11.306Z,1005.68
2019-01-18T05:32:11.270Z,1005.69
2019-01-18T05:33:11.258Z,1005.71
2019-01-18T05:34:11.249Z,1005.74
2019-01-18T05:35:11.267Z,1005.77
2019-01-18T05:36:11.238Z,1005.81
2019-01-18T05:37:11.218Z,1005.83
2019-01-18T05:38:11.207Z,1005.80
2019-01-18T05:39:11.196Z,1005.83
2019-01-18T05:40:11.208Z,1005.87
2019-01-18T05:41:11.176Z,1005.88
2019-01-18T05:42:11.165Z,1005.88
2019-01-18T05:43:11.157Z,1005.98
2019-01-18T05:44:11.195Z,1005.98
2019-01-18T05:45:11.156Z,1006.05
2019-01-18T05:46:11.124Z,1006.04
2019-01-18T05:47:11.109Z,1006.05
2019-01-18T05:48:11.099Z,1006.09
2019-01-18T05:49:11.089Z,1006.13
2019-01-18T05:50:11.104Z,1006.15
2019-01-18T05:51:11.069Z,1006.19
2019-01-18T05:52:11.064Z,1006.24
2019-01-18T05:53:11.050Z,1006.27
2019-01-18T05:54:11.040Z,1006.33
2019-01-18T05:55:11.055Z,1006.36
2019-01-18T05:56:11.019Z,1006.39
2019-01-18T05:57:11.005Z,1006.40
2019-01-18T05:58:11.004Z,1006.40
2019-01-18T05:59:10.983Z,1006.45
2019-01-18T06:00:11.011Z,1006.49
2019-01-18T06:01:10.964Z,1006.61
2019-01-18T06:02:10.953Z,1006.58
2019-01-18T06:03:10.947Z,1006.64
2019-01-18T06:04:10.932Z,1006.65
2019-01-18T06:05:10.920Z,1006.69
2019-01-18T06:06:10.938Z,1006.65
2019-01-18T06:07:10.899Z,1006.70
2019-01-18T06:08:10.888Z,1006.72
2019-01-18T06:09:10.879Z,1006.72
2019-01-18T06:10:10.890Z,1006.74
2019-01-18T06:11:10.857Z,1006.76
2019-01-18T06:12:10.846Z,1006.78
2019-01-18T06:13:10.835Z,1006.76
2019-01-18T06:14:10.825Z,1006.81
2019-01-18T06:15:10.839Z,1006.86
2019-01-18T06:16:10.814Z,1006.84
2019-01-18T06:17:10.793Z,1006.86
2019-01-18T06:18:10.785Z,1006.87
2019-01-18T06:19:10.769Z,1006.91
2019-01-18T06:20:10.799Z,1006.89
2019-01-18T06:21:10.750Z,1006.85
2019-01-18T06:22:10.745Z,1006.90
2019-01-18T06:23:10.739Z,1006.96
2019-01-18T06:24:10.725Z,1007.01
2019-01-18T06:25:10.715Z,1007.00
2019-01-18T06:26:10.728Z,1007.01
2019-01-18T06:27:10.687Z,1007.00
2019-01-18T06:28:10.674Z,1007.02
2019-01-18T06:29:10.664Z,1007.09
2019-01-18T06:30:10.687Z,1007.13
2019-01-18T06:31:10.650Z,1007.15
2019-01-18T06:32:10.632Z,1007.13
2019-01-18T06:33:10.620Z,1007.20
2019-01-18T06:34:10.611Z,1007.18
2019-01-18T06:35:10.624Z,1007.22
2019-01-18T06:36:10.590Z,1007.27
2019-01-18T06:37:10.577Z,1007.29
2019-01-18T06:38:10.567Z,1007.33
2019-01-18T06:39:10.566Z,1007.37
2019-01-18T06:40:10.590Z,1007.39
2019-01-18T06:41:10.538Z,1007.44
2019-01-18T06:42:10.525Z,1007.43
2019-01-18T06:43:10.512Z,1007.45
2019-01-18T06:44:10.504Z,1007.48
2019-01-18T06:45:10.497Z,1007.50
2019-01-18T06:46:10.519Z,1007.50
2019-01-18T06:47:10.470Z,1007.54
2019-01-18T06:48:10.460Z,1007.58
2019-01-18T06:49:10.451Z,1007.65
2019-01-18T06:50:10.464Z,1007.66
2019-01-18T06:51:10.428Z,1007.68
2019-01-18T06:52:10.454Z,1007.75
2019-01-18T06:53:10.421Z,1007.76
2019-01-18T06:54:10.397Z,1007.77
2019-01-18T06:55:10.429Z,1007.83
2019-01-18T06:56:10.378Z,1007.88
2019-01-18T06:57:10.368Z,1007.88
2019-01-18T06:58:10.356Z,1007.86
2019-01-18T06:59:10.343Z,1007.90
2019-01-18T07:00:10.332Z,1007.96
2019-01-18T07:01:10.350Z,1007.99
2019-01-18T07:02:10.313Z,1008.05
2019-01-18T07:03:10.302Z,1008.03
2019-01-18T07:04:10.301Z,1008.07
2019-01-18T07:05:10.306Z,1008.11
2019-01-18T07:06:10.269Z,1008.11
2019-01-18T07:07:10.258Z,1008.20
2019-01-18T07:08:10.250Z,1008.16
2019-01-18T07:09:10.238Z,1008.21
2019-01-18T07:10:10.252Z,1008.22
2019-01-18T07:11:10.218Z,1008.25
2019-01-18T07:12:10.208Z,1008.26
2019-01-18T07:13:10.198Z,1008.29
2019-01-18T07:14:10.187Z,1008.31
2019-01-18T07:15:10.198Z,1008.29
2019-01-18T07:16:10.163Z,1008.30
2019-01-18T07:17:17.184Z,1008.34
2019-01-18T07:18:10.142Z,1008.35
2019-01-18T07:19:10.132Z,1008.44
2019-01-18T07:20:10.145Z,1008.43
2019-01-18T07:21:10.111Z,1008.52
2019-01-18T07:22:10.100Z,1008.47
2019-01-18T07:23:10.089Z,1008.55
2019-01-18T07:24:10.079Z,1008.56
2019-01-18T07:25:10.101Z,1008.53
2019-01-18T07:26:10.058Z,1008.61
2019-01-18T07:27:10.051Z,1008.64
2019-01-18T07:28:10.038Z,1008.68
2019-01-18T07:29:10.027Z,1008.68
2019-01-18T07:30:10.040Z,1008.78
2019-01-18T07:31:15.078Z,1008.76
2019-01-18T07:32:10.991Z,1008.78
2019-01-18T07:33:10.004Z,1008.82
2019-01-18T07:34:09.972Z,1008.82
2019-01-18T07:35:09.988Z,1008.81
2019-01-18T07:36:09.952Z,1008.90
2019-01-18T07:37:09.940Z,1008.91
2019-01-18T07:38:09.933Z,1008.93
2019-01-18T07:39:09.922Z,1008.97
2019-01-18T07:40:09.936Z,1008.99
2019-01-18T07:41:09.899Z,1009.01
2019-01-18T07:42:09.888Z,1008.99
2019-01-18T07:43:09.895Z,1009.07
2019-01-18T07:44:09.868Z,1009.10
2019-01-18T07:45:09.884Z,1009.10
2019-01-18T07:46:09.848Z,1009.11
2019-01-18T07:47:09.836Z,1009.13
2019-01-18T07:48:09.826Z,1009.18
2019-01-18T07:49:09.821Z,1009.21
2019-01-18T07:50:09.827Z,1009.26
2019-01-18T07:51:09.795Z,1009.30
2019-01-18T07:52:09.782Z,1009.31
2019-01-18T07:53:09.774Z,1009.35
2019-01-18T07:54:09.763Z,1009.34
2019-01-18T07:55:09.776Z,1009.40
2019-01-18T07:56:09.740Z,1009.41
2019-01-18T07:57:09.730Z,1009.45
2019-01-18T07:58:09.721Z,1009.43
2019-01-18T07:59:09.709Z,1009.49
2019-01-18T08:00:09.728Z,1009.51
2019-01-18T08:01:09.692Z,1009.52
2019-01-18T08:02:09.680Z,1009.58
2019-01-18T08:03:09.669Z,1009.55
2019-01-18T08:04:09.659Z,1009.61
2019-01-18T08:05:09.672Z,1009.61
2019-01-18T08:06:09.657Z,1009.65
2019-01-18T08:07:09.632Z,1009.64
2019-01-18T08:08:09.614Z,1009.69
2019-01-18T08:09:09.604Z,1009.72
2019-01-18T08:10:09.619Z,1009.75
2019-01-18T08:11:09.582Z,1009.76
2019-01-18T08:12:09.572Z,1009.76
2019-01-18T08:13:09.562Z,1009.82
2019-01-18T08:14:09.551Z,1009.82
2019-01-18T08:15:09.579Z,1009.84
2019-01-18T08:16:09.530Z,1009.90
2019-01-18T08:17:09.520Z,1009.92
2019-01-18T08:18:09.510Z,1009.92
2019-01-18T08:19:09.498Z,1009.93
2019-01-18T08:20:09.488Z,1009.99
2019-01-18T08:21:09.501Z,1009.99
2019-01-18T08:22:09.466Z,1010.01
2019-01-18T08:23:09.457Z,1010.08
2019-01-18T08:24:09.447Z,1010.09
2019-01-18T08:25:09.435Z,1010.11
2019-01-18T08:26:09.449Z,1010.17
2019-01-18T08:27:09.417Z,1010.11
2019-01-18T08:28:09.403Z,1010.16
2019-01-18T08:29:09.393Z,1010.21
2019-01-18T08:30:09.382Z,1010.22
2019-01-18T08:31:09.399Z,1010.24
2019-01-18T08:32:09.376Z,1010.30
2019-01-18T08:33:09.349Z,1010.31
2019-01-18T08:34:09.339Z,1010.31
2019-01-18T08:35:09.356Z,1010.37
2019-01-18T08:36:09.318Z,1010.33
2019-01-18T08:37:09.311Z,1010.36
2019-01-18T08:38:09.307Z,1010.31
2019-01-18T08:39:09.288Z,1010.35
2019-01-18T08:40:09.318Z,1010.38
2019-01-18T08:41:09.266Z,1010.40
2019-01-18T08:42:09.259Z,1010.44
2019-01-18T08:43:09.245Z,1010.39
2019-01-18T08:44:09.235Z,1010.46
2019-01-18T08:45:09.224Z,1010.48
2019-01-18T08:46:09.238Z,1010.52
2019-01-18T08:47:09.204Z,1010.50
2019-01-18T08:48:09.192Z,1010.51
2019-01-18T08:49:09.182Z,1010.53
2019-01-18T08:50:09.202Z,1010.56
2019-01-18T08:51:09.163Z,1010.55
2019-01-18T08:52:09.155Z,1010.49
2019-01-18T08:53:09.140Z,1010.53
2019-01-18T08:54:09.129Z,1010.50
2019-01-18T08:55:09.144Z,1010.53
2019-01-18T08:56:09.110Z,1010.52
2019-01-18T08:57:09.097Z,1010.53
2019-01-18T08:58:09.091Z,1010.57
2019-01-18T08:59:09.081Z,1010.55
2019-01-18T09:00:09.105Z,1010.61
2019-01-18T09:01:09.054Z,1010.62
2019-01-18T09:02:09.045Z,1010.68
2019-01-18T09:03:09.034Z,1010.71
2019-01-18T09:04:09.024Z,1010.69
2019-01-18T09:05:09.011Z,1010.67
2019-01-18T09:06:09.028Z,1010.71
2019-01-18T09:07:08.991Z,1010.76
2019-01-18T09:08:08.981Z,1010.72
2019-01-18T09:09:08.970Z,1010.79
2019-01-18T09:10:08.985Z,1010.81
2019-01-18T09:11:08.949Z,1010.77
2019-01-18T09:12:08.938Z,1010.76
2019-01-18T09:13:08.928Z,1010.81
2019-01-18T09:14:08.916Z,1010.87
2019-01-18T09:15:08.935Z,1010.84
2019-01-18T09:16:08.894Z,1010.88
2019-01-18T09:17:08.885Z,1010.88
2019-01-18T09:18:08.874Z,1010.86
2019-01-18T09:19:08.865Z,1010.85
2019-01-18T09:20:08.879Z,1010.91
2019-01-18T09:21:08.848Z,1010.96
2019-01-18T09:22:08.838Z,1010.96
2019-01-18T09:23:08.821Z,1010.98
2019-01-18T09:24:08.810Z,1010.97
2019-01-18T09:25:08.826Z,1010.98
2019-01-18T09:26:08.789Z,1011.01
2019-01-18T09:27:08.777Z,1011.03
2019-01-18T09:28:08.767Z,1011.05
2019-01-18T09:29:08.760Z,1011.11
2019-01-18T09:30:08.771Z,1011.10
2019-01-18T09:31:08.738Z,1011.12
2019-01-18T09:32:08.724Z,1011.09
2019-01-18T09:33:08.727Z,1011.15
2019-01-18T09:34:08.703Z,1011.12
2019-01-18T09:35:08.727Z,1011.16
2019-01-18T09:36:08.682Z,1011.12
2019-01-18T09:37:08.674Z,1011.18
2019-01-18T09:38:08.660Z,1011.16
2019-01-18T09:39:08.653Z,1011.22
2019-01-18T09:40:08.640Z,1011.22
2019-01-18T09:41:08.652Z,1011.24
2019-01-18T09:42:08.619Z,1011.21
2019-01-18T09:43:08.605Z,1011.19
2019-01-18T09:44:08.598Z,1011.25
2019-01-18T09:45:08.594Z,1011.27
2019-01-18T09:46:08.601Z,1011.23
2019-01-18T09:47:08.564Z,1011.25
2019-01-18T09:48:08.556Z,1011.26
2019-01-18T09:49:08.546Z,1011.32
2019-01-18T09:50:08.538Z,1011.27
2019-01-18T09:51:08.551Z,1011.29
2019-01-18T09:52:08.516Z,1011.30
2019-01-18T09:53:08.503Z,1011.33
2019-01-18T09:54:08.494Z,1011.27
2019-01-18T09:55:08.507Z,1011.33
2019-01-18T09:56:08.471Z,1011.31
2019-01-18T09:57:08.462Z,1011.33
2019-01-18T09:58:08.452Z,1011.33
2019-01-18T09:59:08.444Z,1011.28
2019-01-18T10:00:08.468Z,1011.32
2019-01-18T10:01:08.421Z,1011.31
2019-01-18T10:02:08.410Z,1011.28
2019-01-18T10:03:08.403Z,1011.29
2019-01-18T10:04:08.390Z,1011.29
2019-01-18T10:05:08.380Z,1011.27
2019-01-18T10:06:08.396Z,1011.32
2019-01-18T10:07:08.359Z,1011.34
2019-01-18T10:08:09.796Z,1011.34
2019-01-18T10:09:08.336Z,1011.36
2019-01-18T10:10:08.354Z,1011.30
2019-01-18T10:11:08.353Z,1011.31
2019-01-18T10:12:08.304Z,1011.31
2019-01-18T10:13:08.296Z,1011.35
2019-01-18T10:14:08.329Z,1011.31
2019-01-18T10:15:08.312Z,1011.33
2019-01-18T10:16:08.278Z,1011.35
2019-01-18T10:17:08.254Z,1011.33
2019-01-18T10:18:08.246Z,1011.39
2019-01-18T10:19:08.234Z,1011.34
2019-01-18T10:20:08.226Z,1011.37
2019-01-18T10:21:08.240Z,1011.37
2019-01-18T10:22:08.203Z,1011.38
2019-01-18T10:23:08.193Z,1011.40
2019-01-18T10:24:08.182Z,1011.33
2019-01-18T10:25:08.176Z,1011.38
2019-01-18T10:26:14.321Z,1011.41
2019-01-18T10:27:08.150Z,1011.37
2019-01-18T10:28:08.141Z,1011.34
2019-01-18T10:29:08.129Z,1011.38
2019-01-18T10:30:08.144Z,1011.35
2019-01-18T10:31:08.107Z,1011.42
2019-01-18T10:32:08.105Z,1011.34
2019-01-18T10:33:08.088Z,1011.37
2019-01-18T10:34:08.078Z,1011.38
2019-01-18T10:35:14.519Z,1011.40
2019-01-18T10:36:08.056Z,1011.40
2019-01-18T10:37:08.060Z,1011.40
2019-01-18T10:38:08.035Z,1011.39
2019-01-18T10:39:08.026Z,1011.41
2019-01-18T10:40:08.014Z,1011.41
2019-01-18T10:41:08.028Z,1011.43
2019-01-18T10:42:07.993Z,1011.50
2019-01-18T10:43:07.986Z,1011.47
2019-01-18T10:44:07.972Z,1011.43
2019-01-18T10:45:07.960Z,1011.43
2019-01-18T10:46:07.979Z,1011.53
2019-01-18T10:47:07.938Z,1011.49
2019-01-18T10:48:07.929Z,1011.51
2019-01-18T10:49:07.916Z,1011.57
2019-01-18T10:50:07.932Z,1011.56
2019-01-18T10:51:07.898Z,1011.64
2019-01-18T10:52:07.886Z,1011.62
2019-01-18T10:53:07.877Z,1011.63
2019-01-18T10:54:07.863Z,1011.60
2019-01-18T10:55:07.887Z,1011.68
2019-01-18T10:56:07.841Z,1011.68
2019-01-18T10:57:07.832Z,1011.70
2019-01-18T10:58:07.821Z,1011.68
2019-01-18T10:59:07.811Z,1011.76
2019-01-18T11:00:07.813Z,1011.77
2019-01-18T11:01:07.813Z,1011.77
2019-01-18T11:02:07.777Z,1011.80
2019-01-18T11:03:09.044Z,1011.78
2019-01-18T11:04:07.757Z,1011.87
2019-01-18T11:05:07.770Z,1011.87
2019-01-18T11:06:07.735Z,1011.82
2019-01-18T11:07:07.727Z,1011.85
2019-01-18T11:08:07.713Z,1011.84
2019-01-18T11:09:07.702Z,1011.79
2019-01-18T11:10:07.732Z,1011.84
2019-01-18T11:11:07.682Z,1011.83
2019-01-18T11:12:07.669Z,1011.80
2019-01-18T11:13:07.660Z,1011.86
2019-01-18T11:14:07.650Z,1011.89
2019-01-18T11:15:07.638Z,1011.85
2019-01-18T11:16:07.654Z,1011.91
2019-01-18T11:17:07.620Z,1011.88
2019-01-18T11:18:07.607Z,1011.85
2019-01-18T11:19:07.597Z,1011.86
2019-01-18T11:20:07.583Z,1011.86
2019-01-18T11:21:07.607Z,1011.86
2019-01-18T11:22:07.562Z,1011.84
2019-01-18T11:23:07.563Z,1011.91
2019-01-18T11:24:07.540Z,1011.92
2019-01-18T11:25:07.571Z,1011.91
2019-01-18T11:26:07.518Z,1011.89
2019-01-18T11:27:07.509Z,1011.92
2019-01-18T11:28:07.498Z,1011.88
2019-01-18T11:29:07.485Z,1011.88
2019-01-18T11:30:07.478Z,1011.94
2019-01-18T11:31:07.490Z,1011.88
2019-01-18T11:32:13.566Z,1011.90
2019-01-18T11:33:08.445Z,1011.92
2019-01-18T11:34:07.443Z,1011.94
2019-01-18T11:35:07.448Z,1011.92
2019-01-18T11:36:07.419Z,1011.86
2019-01-18T11:37:07.400Z,1011.92
2019-01-18T11:38:07.392Z,1011.97
2019-01-18T11:39:07.381Z,1011.99
2019-01-18T11:40:07.392Z,1011.97
2019-01-18T11:41:07.360Z,1011.89
2019-01-18T11:42:07.346Z,1011.92
2019-01-18T11:43:07.335Z,1011.92
2019-01-18T11:44:07.324Z,1011.90
2019-01-18T11:45:07.353Z,1011.92
2019-01-18T11:46:07.320Z,1011.92
2019-01-18T11:47:07.298Z,1011.96
2019-01-18T11:48:07.282Z,1011.95
2019-01-18T11:49:07.316Z,1011.95
2019-01-18T11:50:07.262Z,1012.02
2019-01-18T11:51:07.274Z,1012.05
2019-01-18T11:52:07.253Z,1012.02
2019-01-18T11:53:07.228Z,1012.00
2019-01-18T11:54:07.218Z,1012.00
2019-01-18T11:55:07.209Z,1012.01
2019-01-18T11:56:07.244Z,1012.06
2019-01-18T11:57:07.187Z,1012.05
2019-01-18T11:58:07.175Z,1012.09
2019-01-18T11:59:07.164Z,1012.11
2019-01-18T12:00:07.179Z,1012.10
2019-01-18T12:01:07.142Z,1012.04
2019-01-18T12:02:07.131Z,1012.02
2019-01-18T12:03:07.120Z,1012.03
2019-01-18T12:04:07.111Z,1012.10
2019-01-18T12:05:07.126Z,1012.10
2019-01-18T12:06:07.089Z,1012.11
2019-01-18T12:07:07.078Z,1012.08
2019-01-18T12:08:07.070Z,1012.09